sensor_id;sensor_type;location;lat;lon;timestamp;P1;durP1;ratioP1;P2;durP2;ratioP2
4732;SDS011;2380;53.668;10.008;2023-02-15T00:00:20;128.53;;;35.30;;
4732;SDS011;2380;53.668;10.008;2023-02-15T00:02:55;209.73;;;41.60;;
4732;SDS011;2380;53.668;10.008;2023-02-15T00:05:25;109.97;;;36.07;;
4732;SDS011;2380;53.668;10.008;2023-02-15T00:07:55;218.27;;;41.00;;
4732;SDS011;2380;53.668;10.008;2023-02-15T00:10:25;164.10;;;38.00;;
4732;SDS011;2380;53.668;10.008;2023-02-15T00:12:54;166.73;;;39.77;;
4732;SDS011;2380;53.668;10.008;2023-02-15T00:15:23;136.37;;;37.33;;
4732;SDS011;2380;53.668;10.008;2023-02-15T00:17:55;159.40;;;39.87;;
4732;SDS011;2380;53.668;10.008;2023-02-15T00:20:25;110.27;;;36.77;;
4732;SDS011;2380;53.668;10.008;2023-02-15T00:22:55;179.13;;;40.27;;
4732;SDS011;2380;53.668;10.008;2023-02-15T00:25:24;135.67;;;39.00;;
4732;SDS011;2380;53.668;10.008;2023-02-15T00:27:54;145.67;;;39.30;;
4732;SDS011;2380;53.668;10.008;2023-02-15T00:30:23;300.67;;;49.03;;
4732;SDS011;2380;53.668;10.008;2023-02-15T00:32:55;170.07;;;42.33;;
4732;SDS011;2380;53.668;10.008;2023-02-15T00:35:25;269.70;;;49.90;;
4732;SDS011;2380;53.668;10.008;2023-02-15T00:37:55;162.13;;;40.73;;
4732;SDS011;2380;53.668;10.008;2023-02-15T00:40:25;129.63;;;40.50;;
4732;SDS011;2380;53.668;10.008;2023-02-15T00:42:54;309.97;;;50.73;;
4732;SDS011;2380;53.668;10.008;2023-02-15T00:45:24;265.90;;;43.43;;
4732;SDS011;2380;53.668;10.008;2023-02-15T00:47:56;149.33;;;41.70;;
4732;SDS011;2380;53.668;10.008;2023-02-15T00:50:26;173.57;;;42.33;;
4732;SDS011;2380;53.668;10.008;2023-02-15T00:52:55;149.50;;;39.57;;
4732;SDS011;2380;53.668;10.008;2023-02-15T00:55:25;181.90;;;40.57;;
4732;SDS011;2380;53.668;10.008;2023-02-15T00:57:54;297.07;;;48.13;;
4732;SDS011;2380;53.668;10.008;2023-02-15T01:00:24;264.33;;;44.63;;
4732;SDS011;2380;53.668;10.008;2023-02-15T01:02:53;141.37;;;40.07;;
4732;SDS011;2380;53.668;10.008;2023-02-15T01:05:25;179.63;;;41.40;;
4732;SDS011;2380;53.668;10.008;2023-02-15T01:07:55;202.17;;;44.37;;
4732;SDS011;2380;53.668;10.008;2023-02-15T01:10:25;169.77;;;40.70;;
4732;SDS011;2380;53.668;10.008;2023-02-15T01:12:55;135.90;;;39.73;;
4732;SDS011;2380;53.668;10.008;2023-02-15T01:15:25;176.03;;;41.70;;
4732;SDS011;2380;53.668;10.008;2023-02-15T01:17:55;188.33;;;42.07;;
4732;SDS011;2380;53.668;10.008;2023-02-15T01:20:27;135.87;;;38.20;;
4732;SDS011;2380;53.668;10.008;2023-02-15T01:22:57;129.40;;;36.27;;
4732;SDS011;2380;53.668;10.008;2023-02-15T01:25:27;214.73;;;41.50;;
4732;SDS011;2380;53.668;10.008;2023-02-15T01:27:56;128.30;;;36.27;;
4732;SDS011;2380;53.668;10.008;2023-02-15T01:30:26;146.00;;;38.13;;
4732;SDS011;2380;53.668;10.008;2023-02-15T01:32:55;108.47;;;35.93;;
4732;SDS011;2380;53.668;10.008;2023-02-15T01:35:29;137.90;;;36.60;;
4732;SDS011;2380;53.668;10.008;2023-02-15T01:37:59;110.20;;;36.93;;
4732;SDS011;2380;53.668;10.008;2023-02-15T01:40:28;139.53;;;36.83;;
4732;SDS011;2380;53.668;10.008;2023-02-15T01:42:57;358.70;;;43.93;;
4732;SDS011;2380;53.668;10.008;2023-02-15T01:45:28;221.33;;;38.10;;
4732;SDS011;2380;53.668;10.008;2023-02-15T01:47:59;146.87;;;40.77;;
4732;SDS011;2380;53.668;10.008;2023-02-15T01:50:34;199.17;;;41.10;;
4732;SDS011;2380;53.668;10.008;2023-02-15T01:53:06;98.50;;;35.43;;
4732;SDS011;2380;53.668;10.008;2023-02-15T01:55:38;120.67;;;36.00;;
4732;SDS011;2380;53.668;10.008;2023-02-15T01:58:09;255.37;;;43.70;;
4732;SDS011;2380;53.668;10.008;2023-02-15T02:00:38;154.87;;;35.60;;
4732;SDS011;2380;53.668;10.008;2023-02-15T02:03:08;137.60;;;36.00;;
4732;SDS011;2380;53.668;10.008;2023-02-15T02:05:40;332.03;;;44.13;;
4732;SDS011;2380;53.668;10.008;2023-02-15T02:08:10;190.47;;;35.80;;
4732;SDS011;2380;53.668;10.008;2023-02-15T02:10:39;143.63;;;35.27;;
4732;SDS011;2380;53.668;10.008;2023-02-15T02:13:09;131.40;;;34.97;;
4732;SDS011;2380;53.668;10.008;2023-02-15T02:15:39;446.57;;;50.60;;
4732;SDS011;2380;53.668;10.008;2023-02-15T02:18:15;222.83;;;37.80;;
4732;SDS011;2380;53.668;10.008;2023-02-15T02:20:56;141.10;;;36.10;;
4732;SDS011;2380;53.668;10.008;2023-02-15T02:23:58;157.57;;;36.93;;
4732;SDS011;2380;53.668;10.008;2023-02-15T02:26:44;137.77;;;35.37;;
4732;SDS011;2380;53.668;10.008;2023-02-15T02:29:32;108.53;;;35.30;;
4732;SDS011;2380;53.668;10.008;2023-02-15T02:32:17;125.97;;;37.20;;
4732;SDS011;2380;53.668;10.008;2023-02-15T02:35:11;138.53;;;35.93;;
4732;SDS011;2380;53.668;10.008;2023-02-15T02:37:46;110.80;;;33.47;;
4732;SDS011;2380;53.668;10.008;2023-02-15T02:40:20;154.33;;;35.77;;
4732;SDS011;2380;53.668;10.008;2023-02-15T02:42:54;116.50;;;35.70;;
4732;SDS011;2380;53.668;10.008;2023-02-15T02:45:28;127.13;;;36.40;;
4732;SDS011;2380;53.668;10.008;2023-02-15T02:48:02;121.77;;;35.90;;
4732;SDS011;2380;53.668;10.008;2023-02-15T02:50:38;119.70;;;34.70;;
4732;SDS011;2380;53.668;10.008;2023-02-15T02:53:08;130.03;;;35.57;;
4732;SDS011;2380;53.668;10.008;2023-02-15T02:55:39;248.77;;;36.90;;
4732;SDS011;2380;53.668;10.008;2023-02-15T02:58:11;155.27;;;38.10;;
4732;SDS011;2380;53.668;10.008;2023-02-15T03:00:45;162.70;;;48.50;;
4732;SDS011;2380;53.668;10.008;2023-02-15T03:03:18;120.13;;;34.30;;
4732;SDS011;2380;53.668;10.008;2023-02-15T03:05:53;137.40;;;34.90;;
4732;SDS011;2380;53.668;10.008;2023-02-15T03:08:26;108.67;;;35.37;;
4732;SDS011;2380;53.668;10.008;2023-02-15T03:10:59;121.77;;;34.97;;
4732;SDS011;2380;53.668;10.008;2023-02-15T03:13:29;181.83;;;35.33;;
4732;SDS011;2380;53.668;10.008;2023-02-15T03:15:59;199.83;;;40.60;;
4732;SDS011;2380;53.668;10.008;2023-02-15T03:18:43;129.77;;;34.23;;
4732;SDS011;2380;53.668;10.008;2023-02-15T03:21:21;109.33;;;34.70;;
4732;SDS011;2380;53.668;10.008;2023-02-15T03:23:57;165.40;;;35.97;;
4732;SDS011;2380;53.668;10.008;2023-02-15T03:26:29;157.90;;;36.43;;
4732;SDS011;2380;53.668;10.008;2023-02-15T03:28:59;201.13;;;37.67;;
4732;SDS011;2380;53.668;10.008;2023-02-15T03:31:30;145.67;;;33.97;;
4732;SDS011;2380;53.668;10.008;2023-02-15T03:34:02;196.60;;;35.93;;
4732;SDS011;2380;53.668;10.008;2023-02-15T03:36:37;138.73;;;36.40;;
4732;SDS011;2380;53.668;10.008;2023-02-15T03:39:12;168.10;;;36.87;;
4732;SDS011;2380;53.668;10.008;2023-02-15T03:41:48;134.20;;;37.97;;
4732;SDS011;2380;53.668;10.008;2023-02-15T03:44:23;124.87;;;37.73;;
4732;SDS011;2380;53.668;10.008;2023-02-15T03:46:58;143.87;;;39.80;;
4732;SDS011;2380;53.668;10.008;2023-02-15T03:49:32;148.87;;;37.97;;
4732;SDS011;2380;53.668;10.008;2023-02-15T03:52:08;143.60;;;37.90;;
4732;SDS011;2380;53.668;10.008;2023-02-15T03:54:40;106.10;;;34.13;;
4732;SDS011;2380;53.668;10.008;2023-02-15T03:57:16;140.20;;;37.87;;
4732;SDS011;2380;53.668;10.008;2023-02-15T04:00:00;104.17;;;33.57;;
4732;SDS011;2380;53.668;10.008;2023-02-15T04:02:46;162.67;;;33.93;;
4732;SDS011;2380;53.668;10.008;2023-02-15T04:05:21;221.67;;;36.57;;
4732;SDS011;2380;53.668;10.008;2023-02-15T04:07:54;211.03;;;39.20;;
4732;SDS011;2380;53.668;10.008;2023-02-15T04:10:23;85.20;;;30.80;;
4732;SDS011;2380;53.668;10.008;2023-02-15T04:13:05;135.03;;;34.03;;
4732;SDS011;2380;53.668;10.008;2023-02-15T04:15:35;108.87;;;33.27;;
4732;SDS011;2380;53.668;10.008;2023-02-15T04:18:16;103.93;;;33.57;;
4732;SDS011;2380;53.668;10.008;2023-02-15T04:20:46;130.83;;;33.00;;
4732;SDS011;2380;53.668;10.008;2023-02-15T04:23:31;191.43;;;39.40;;
4732;SDS011;2380;53.668;10.008;2023-02-15T04:26:14;114.43;;;33.43;;
4732;SDS011;2380;53.668;10.008;2023-02-15T04:28:43;101.53;;;30.53;;
4732;SDS011;2380;53.668;10.008;2023-02-15T04:31:12;199.90;;;35.97;;
4732;SDS011;2380;53.668;10.008;2023-02-15T04:33:42;91.20;;;32.27;;
4732;SDS011;2380;53.668;10.008;2023-02-15T04:36:11;135.40;;;31.77;;
4732;SDS011;2380;53.668;10.008;2023-02-15T04:38:44;122.03;;;34.80;;
4732;SDS011;2380;53.668;10.008;2023-02-15T04:41:13;84.07;;;31.03;;
4732;SDS011;2380;53.668;10.008;2023-02-15T04:43:42;116.93;;;32.80;;
4732;SDS011;2380;53.668;10.008;2023-02-15T04:46:12;94.07;;;30.60;;
4732;SDS011;2380;53.668;10.008;2023-02-15T04:48:41;95.37;;;30.60;;
4732;SDS011;2380;53.668;10.008;2023-02-15T04:51:11;83.47;;;28.90;;
4732;SDS011;2380;53.668;10.008;2023-02-15T04:53:40;95.30;;;29.90;;
4732;SDS011;2380;53.668;10.008;2023-02-15T04:56:12;94.27;;;28.73;;
4732;SDS011;2380;53.668;10.008;2023-02-15T04:58:42;113.17;;;31.43;;
4732;SDS011;2380;53.668;10.008;2023-02-15T05:01:11;96.93;;;31.37;;
4732;SDS011;2380;53.668;10.008;2023-02-15T05:03:41;89.17;;;31.97;;
4732;SDS011;2380;53.668;10.008;2023-02-15T05:06:10;91.67;;;29.60;;
4732;SDS011;2380;53.668;10.008;2023-02-15T05:08:40;118.17;;;31.77;;
4732;SDS011;2380;53.668;10.008;2023-02-15T05:11:12;86.87;;;29.87;;
4732;SDS011;2380;53.668;10.008;2023-02-15T05:13:41;95.23;;;30.67;;
4732;SDS011;2380;53.668;10.008;2023-02-15T05:16:10;84.83;;;29.17;;
4732;SDS011;2380;53.668;10.008;2023-02-15T05:18:40;94.53;;;28.73;;
4732;SDS011;2380;53.668;10.008;2023-02-15T05:21:09;84.63;;;29.53;;
4732;SDS011;2380;53.668;10.008;2023-02-15T05:23:39;118.20;;;30.50;;
4732;SDS011;2380;53.668;10.008;2023-02-15T05:26:12;109.73;;;30.40;;
4732;SDS011;2380;53.668;10.008;2023-02-15T05:28:54;101.40;;;30.37;;
4732;SDS011;2380;53.668;10.008;2023-02-15T05:31:24;94.30;;;30.17;;
4732;SDS011;2380;53.668;10.008;2023-02-15T05:33:54;106.63;;;32.77;;
4732;SDS011;2380;53.668;10.008;2023-02-15T05:36:23;117.17;;;30.40;;
4732;SDS011;2380;53.668;10.008;2023-02-15T05:38:54;86.47;;;28.30;;
4732;SDS011;2380;53.668;10.008;2023-02-15T05:41:26;90.93;;;29.20;;
4732;SDS011;2380;53.668;10.008;2023-02-15T05:43:55;143.80;;;33.27;;
4732;SDS011;2380;53.668;10.008;2023-02-15T05:46:25;87.63;;;29.07;;
4732;SDS011;2380;53.668;10.008;2023-02-15T05:48:54;88.30;;;27.40;;
4732;SDS011;2380;53.668;10.008;2023-02-15T05:51:24;74.07;;;25.00;;
4732;SDS011;2380;53.668;10.008;2023-02-15T05:53:53;118.77;;;32.03;;
4732;SDS011;2380;53.668;10.008;2023-02-15T05:56:25;99.13;;;27.87;;
4732;SDS011;2380;53.668;10.008;2023-02-15T05:58:55;117.77;;;28.60;;
4732;SDS011;2380;53.668;10.008;2023-02-15T06:01:24;118.43;;;30.90;;
4732;SDS011;2380;53.668;10.008;2023-02-15T06:03:54;96.27;;;32.37;;
4732;SDS011;2380;53.668;10.008;2023-02-15T06:06:23;143.97;;;32.70;;
4732;SDS011;2380;53.668;10.008;2023-02-15T06:08:53;138.37;;;32.30;;
4732;SDS011;2380;53.668;10.008;2023-02-15T06:11:22;139.10;;;30.23;;
4732;SDS011;2380;53.668;10.008;2023-02-15T06:13:54;164.20;;;29.40;;
4732;SDS011;2380;53.668;10.008;2023-02-15T06:16:23;78.40;;;27.50;;
4732;SDS011;2380;53.668;10.008;2023-02-15T06:18:53;109.73;;;28.27;;
4732;SDS011;2380;53.668;10.008;2023-02-15T06:21:22;83.40;;;25.37;;
4732;SDS011;2380;53.668;10.008;2023-02-15T06:23:52;112.60;;;28.77;;
4732;SDS011;2380;53.668;10.008;2023-02-15T06:26:21;154.00;;;28.07;;
4732;SDS011;2380;53.668;10.008;2023-02-15T06:28:53;108.10;;;27.10;;
4732;SDS011;2380;53.668;10.008;2023-02-15T06:31:23;98.60;;;25.43;;
4732;SDS011;2380;53.668;10.008;2023-02-15T06:33:52;116.13;;;30.17;;
4732;SDS011;2380;53.668;10.008;2023-02-15T06:36:27;93.57;;;27.63;;
4732;SDS011;2380;53.668;10.008;2023-02-15T06:38:56;94.93;;;29.97;;
4732;SDS011;2380;53.668;10.008;2023-02-15T06:41:26;151.20;;;33.20;;
4732;SDS011;2380;53.668;10.008;2023-02-15T06:43:58;120.33;;;32.90;;
4732;SDS011;2380;53.668;10.008;2023-02-15T06:46:28;107.90;;;31.27;;
4732;SDS011;2380;53.668;10.008;2023-02-15T06:48:57;102.57;;;29.47;;
4732;SDS011;2380;53.668;10.008;2023-02-15T06:51:27;77.97;;;29.70;;
4732;SDS011;2380;53.668;10.008;2023-02-15T06:53:56;132.33;;;32.80;;
4732;SDS011;2380;53.668;10.008;2023-02-15T06:56:26;103.37;;;31.37;;
4732;SDS011;2380;53.668;10.008;2023-02-15T06:58:55;138.73;;;29.60;;
4732;SDS011;2380;53.668;10.008;2023-02-15T07:01:27;106.80;;;29.83;;
4732;SDS011;2380;53.668;10.008;2023-02-15T07:03:57;118.17;;;29.27;;
4732;SDS011;2380;53.668;10.008;2023-02-15T07:06:28;157.47;;;31.40;;
4732;SDS011;2380;53.668;10.008;2023-02-15T07:09:00;118.50;;;28.50;;
4732;SDS011;2380;53.668;10.008;2023-02-15T07:11:30;103.73;;;30.17;;
4732;SDS011;2380;53.668;10.008;2023-02-15T07:14:21;81.80;;;28.83;;
4732;SDS011;2380;53.668;10.008;2023-02-15T07:16:56;114.80;;;28.87;;
4732;SDS011;2380;53.668;10.008;2023-02-15T07:19:26;83.77;;;27.57;;
4732;SDS011;2380;53.668;10.008;2023-02-15T07:21:55;105.43;;;27.30;;
4732;SDS011;2380;53.668;10.008;2023-02-15T07:24:26;88.33;;;27.10;;
4732;SDS011;2380;53.668;10.008;2023-02-15T07:26:56;83.70;;;27.80;;
4732;SDS011;2380;53.668;10.008;2023-02-15T07:29:25;101.23;;;29.70;;
4732;SDS011;2380;53.668;10.008;2023-02-15T07:31:58;76.60;;;27.27;;
4732;SDS011;2380;53.668;10.008;2023-02-15T07:34:27;113.00;;;27.63;;
4732;SDS011;2380;53.668;10.008;2023-02-15T07:36:57;160.73;;;31.73;;
4732;SDS011;2380;53.668;10.008;2023-02-15T07:39:26;71.17;;;25.10;;
4732;SDS011;2380;53.668;10.008;2023-02-15T07:41:56;82.47;;;27.43;;
4732;SDS011;2380;53.668;10.008;2023-02-15T07:44:25;115.43;;;40.20;;
4732;SDS011;2380;53.668;10.008;2023-02-15T07:46:57;80.73;;;28.73;;
4732;SDS011;2380;53.668;10.008;2023-02-15T07:49:27;133.73;;;41.30;;
4732;SDS011;2380;53.668;10.008;2023-02-15T07:51:56;112.90;;;32.40;;
4732;SDS011;2380;53.668;10.008;2023-02-15T07:54:26;89.67;;;32.13;;
4732;SDS011;2380;53.668;10.008;2023-02-15T07:56:55;77.30;;;27.43;;
4732;SDS011;2380;53.668;10.008;2023-02-15T07:59:25;74.83;;;27.67;;
4732;SDS011;2380;53.668;10.008;2023-02-15T08:01:54;117.80;;;28.70;;
4732;SDS011;2380;53.668;10.008;2023-02-15T08:04:27;73.67;;;27.63;;
4732;SDS011;2380;53.668;10.008;2023-02-15T08:06:57;74.47;;;27.33;;
4732;SDS011;2380;53.668;10.008;2023-02-15T08:09:26;119.47;;;27.77;;
4732;SDS011;2380;53.668;10.008;2023-02-15T08:11:56;81.90;;;27.77;;
4732;SDS011;2380;53.668;10.008;2023-02-15T08:14:26;77.53;;;25.80;;
4732;SDS011;2380;53.668;10.008;2023-02-15T08:16:58;94.23;;;27.80;;
4732;SDS011;2380;53.668;10.008;2023-02-15T08:19:33;71.37;;;27.10;;
4732;SDS011;2380;53.668;10.008;2023-02-15T08:22:04;126.57;;;28.17;;
4732;SDS011;2380;53.668;10.008;2023-02-15T08:24:35;76.93;;;28.10;;
4732;SDS011;2380;53.668;10.008;2023-02-15T08:27:06;108.60;;;29.30;;
4732;SDS011;2380;53.668;10.008;2023-02-15T08:29:36;64.97;;;26.87;;
4732;SDS011;2380;53.668;10.008;2023-02-15T08:32:09;69.63;;;27.63;;
4732;SDS011;2380;53.668;10.008;2023-02-15T08:34:41;83.17;;;29.20;;
4732;SDS011;2380;53.668;10.008;2023-02-15T08:37:11;71.83;;;28.73;;
4732;SDS011;2380;53.668;10.008;2023-02-15T08:39:41;109.33;;;27.60;;
4732;SDS011;2380;53.668;10.008;2023-02-15T08:42:12;84.47;;;29.10;;
4732;SDS011;2380;53.668;10.008;2023-02-15T08:44:41;80.77;;;27.37;;
4732;SDS011;2380;53.668;10.008;2023-02-15T08:47:11;101.33;;;29.80;;
4732;SDS011;2380;53.668;10.008;2023-02-15T08:49:43;137.87;;;28.53;;
4732;SDS011;2380;53.668;10.008;2023-02-15T08:52:12;106.70;;;28.70;;
4732;SDS011;2380;53.668;10.008;2023-02-15T08:54:42;78.00;;;29.40;;
4732;SDS011;2380;53.668;10.008;2023-02-15T08:57:11;75.20;;;29.77;;
4732;SDS011;2380;53.668;10.008;2023-02-15T08:59:40;96.13;;;29.13;;
4732;SDS011;2380;53.668;10.008;2023-02-15T09:02:10;77.47;;;27.80;;
4732;SDS011;2380;53.668;10.008;2023-02-15T09:04:40;72.17;;;26.23;;
4732;SDS011;2380;53.668;10.008;2023-02-15T09:07:12;118.13;;;30.10;;
4732;SDS011;2380;53.668;10.008;2023-02-15T09:09:41;70.27;;;28.67;;
4732;SDS011;2380;53.668;10.008;2023-02-15T09:12:11;71.30;;;28.10;;
4732;SDS011;2380;53.668;10.008;2023-02-15T09:14:41;71.63;;;27.63;;
4732;SDS011;2380;53.668;10.008;2023-02-15T09:17:10;97.33;;;31.53;;
4732;SDS011;2380;53.668;10.008;2023-02-15T09:19:43;84.77;;;30.77;;
4732;SDS011;2380;53.668;10.008;2023-02-15T09:22:13;172.57;;;31.70;;
4732;SDS011;2380;53.668;10.008;2023-02-15T09:24:42;71.90;;;29.37;;
4732;SDS011;2380;53.668;10.008;2023-02-15T09:27:12;122.30;;;29.50;;
4732;SDS011;2380;53.668;10.008;2023-02-15T09:29:41;83.83;;;31.27;;
4732;SDS011;2380;53.668;10.008;2023-02-15T09:32:13;94.00;;;27.47;;
4732;SDS011;2380;53.668;10.008;2023-02-15T09:34:46;129.13;;;34.40;;
4732;SDS011;2380;53.668;10.008;2023-02-15T09:37:15;125.93;;;28.90;;
4732;SDS011;2380;53.668;10.008;2023-02-15T09:39:45;86.77;;;31.17;;
4732;SDS011;2380;53.668;10.008;2023-02-15T09:42:22;80.90;;;28.90;;
4732;SDS011;2380;53.668;10.008;2023-02-15T09:45:14;89.67;;;31.03;;
4732;SDS011;2380;53.668;10.008;2023-02-15T09:48:02;237.30;;;36.03;;
4732;SDS011;2380;53.668;10.008;2023-02-15T09:50:41;122.43;;;32.03;;
4732;SDS011;2380;53.668;10.008;2023-02-15T09:53:23;149.13;;;32.40;;
4732;SDS011;2380;53.668;10.008;2023-02-15T09:56:00;100.00;;;29.97;;
4732;SDS011;2380;53.668;10.008;2023-02-15T09:58:35;85.43;;;31.00;;
4732;SDS011;2380;53.668;10.008;2023-02-15T10:01:11;112.60;;;33.20;;
4732;SDS011;2380;53.668;10.008;2023-02-15T10:03:50;94.30;;;31.77;;
4732;SDS011;2380;53.668;10.008;2023-02-15T10:06:31;92.30;;;30.33;;
4732;SDS011;2380;53.668;10.008;2023-02-15T10:09:20;156.93;;;37.13;;
4732;SDS011;2380;53.668;10.008;2023-02-15T10:12:01;95.03;;;36.67;;
4732;SDS011;2380;53.668;10.008;2023-02-15T10:14:44;119.00;;;40.63;;
4732;SDS011;2380;53.668;10.008;2023-02-15T10:17:29;111.10;;;42.87;;
4732;SDS011;2380;53.668;10.008;2023-02-15T10:20:09;126.53;;;50.33;;
4732;SDS011;2380;53.668;10.008;2023-02-15T10:22:50;143.47;;;56.20;;
4732;SDS011;2380;53.668;10.008;2023-02-15T10:25:33;76.93;;;32.13;;
4732;SDS011;2380;53.668;10.008;2023-02-15T10:28:09;91.50;;;34.20;;
4732;SDS011;2380;53.668;10.008;2023-02-15T10:30:43;93.80;;;37.40;;
4732;SDS011;2380;53.668;10.008;2023-02-15T10:33:22;86.20;;;33.93;;
4732;SDS011;2380;53.668;10.008;2023-02-15T10:36:02;96.13;;;34.73;;
4732;SDS011;2380;53.668;10.008;2023-02-15T10:38:41;101.37;;;34.33;;
4732;SDS011;2380;53.668;10.008;2023-02-15T10:41:15;94.07;;;35.23;;
4732;SDS011;2380;53.668;10.008;2023-02-15T10:43:56;91.33;;;34.33;;
4732;SDS011;2380;53.668;10.008;2023-02-15T10:46:43;102.50;;;36.57;;
4732;SDS011;2380;53.668;10.008;2023-02-15T10:49:26;107.53;;;37.23;;
4732;SDS011;2380;53.668;10.008;2023-02-15T10:52:18;96.40;;;35.97;;
4732;SDS011;2380;53.668;10.008;2023-02-15T10:55:01;83.40;;;33.50;;
4732;SDS011;2380;53.668;10.008;2023-02-15T10:57:38;91.53;;;33.53;;
4732;SDS011;2380;53.668;10.008;2023-02-15T11:00:15;88.70;;;34.60;;
4732;SDS011;2380;53.668;10.008;2023-02-15T11:02:51;86.23;;;31.50;;
4732;SDS011;2380;53.668;10.008;2023-02-15T11:05:36;93.97;;;31.70;;
4732;SDS011;2380;53.668;10.008;2023-02-15T11:08:09;84.67;;;32.80;;
4732;SDS011;2380;53.668;10.008;2023-02-15T11:10:42;82.90;;;33.47;;
4732;SDS011;2380;53.668;10.008;2023-02-15T11:13:14;93.80;;;35.70;;
4732;SDS011;2380;53.668;10.008;2023-02-15T11:15:46;83.37;;;32.50;;
4732;SDS011;2380;53.668;10.008;2023-02-15T11:18:20;97.20;;;36.23;;
4732;SDS011;2380;53.668;10.008;2023-02-15T11:20:53;94.63;;;35.10;;
4732;SDS011;2380;53.668;10.008;2023-02-15T11:23:25;101.70;;;35.93;;
4732;SDS011;2380;53.668;10.008;2023-02-15T11:25:58;90.70;;;35.47;;
4732;SDS011;2380;53.668;10.008;2023-02-15T11:28:31;89.43;;;36.70;;
4732;SDS011;2380;53.668;10.008;2023-02-15T11:31:10;94.60;;;36.43;;
4732;SDS011;2380;53.668;10.008;2023-02-15T11:33:43;93.27;;;38.00;;
4732;SDS011;2380;53.668;10.008;2023-02-15T11:36:16;91.93;;;37.97;;
4732;SDS011;2380;53.668;10.008;2023-02-15T11:38:49;87.83;;;35.80;;
4732;SDS011;2380;53.668;10.008;2023-02-15T11:41:24;83.53;;;35.40;;
4732;SDS011;2380;53.668;10.008;2023-02-15T11:43:58;95.67;;;35.40;;
4732;SDS011;2380;53.668;10.008;2023-02-15T11:46:29;99.40;;;40.23;;
4732;SDS011;2380;53.668;10.008;2023-02-15T11:48:59;97.97;;;37.37;;
4732;SDS011;2380;53.668;10.008;2023-02-15T11:51:29;94.57;;;36.83;;
4732;SDS011;2380;53.668;10.008;2023-02-15T11:53:58;96.77;;;39.67;;
4732;SDS011;2380;53.668;10.008;2023-02-15T11:56:32;87.07;;;38.40;;
4732;SDS011;2380;53.668;10.008;2023-02-15T11:59:03;93.93;;;37.63;;
4732;SDS011;2380;53.668;10.008;2023-02-15T12:01:36;95.93;;;39.80;;
4732;SDS011;2380;53.668;10.008;2023-02-15T12:04:08;85.83;;;36.80;;
4732;SDS011;2380;53.668;10.008;2023-02-15T12:06:43;94.07;;;37.43;;
4732;SDS011;2380;53.668;10.008;2023-02-15T12:09:16;91.10;;;36.63;;
4732;SDS011;2380;53.668;10.008;2023-02-15T12:11:51;90.63;;;37.83;;
4732;SDS011;2380;53.668;10.008;2023-02-15T12:14:21;90.97;;;37.03;;
4732;SDS011;2380;53.668;10.008;2023-02-15T12:16:50;82.40;;;34.70;;
4732;SDS011;2380;53.668;10.008;2023-02-15T12:19:28;83.23;;;36.20;;
4732;SDS011;2380;53.668;10.008;2023-02-15T12:21:59;82.33;;;36.73;;
4732;SDS011;2380;53.668;10.008;2023-02-15T12:24:30;88.93;;;37.20;;
4732;SDS011;2380;53.668;10.008;2023-02-15T12:27:05;88.50;;;38.17;;
4732;SDS011;2380;53.668;10.008;2023-02-15T12:29:41;83.63;;;35.97;;
4732;SDS011;2380;53.668;10.008;2023-02-15T12:32:16;89.50;;;38.77;;
4732;SDS011;2380;53.668;10.008;2023-02-15T12:34:47;89.63;;;37.03;;
4732;SDS011;2380;53.668;10.008;2023-02-15T12:37:17;86.80;;;39.27;;
4732;SDS011;2380;53.668;10.008;2023-02-15T12:39:53;73.50;;;35.30;;
4732;SDS011;2380;53.668;10.008;2023-02-15T12:42:26;72.20;;;34.40;;
4732;SDS011;2380;53.668;10.008;2023-02-15T12:44:59;78.10;;;35.93;;
4732;SDS011;2380;53.668;10.008;2023-02-15T12:47:30;74.70;;;34.80;;
4732;SDS011;2380;53.668;10.008;2023-02-15T12:50:07;71.80;;;34.87;;
4732;SDS011;2380;53.668;10.008;2023-02-15T12:52:43;73.13;;;33.87;;
4732;SDS011;2380;53.668;10.008;2023-02-15T12:55:18;63.10;;;31.17;;
4732;SDS011;2380;53.668;10.008;2023-02-15T12:57:58;59.00;;;30.83;;
4732;SDS011;2380;53.668;10.008;2023-02-15T13:00:34;63.13;;;30.37;;
4732;SDS011;2380;53.668;10.008;2023-02-15T13:03:04;63.90;;;33.37;;
4732;SDS011;2380;53.668;10.008;2023-02-15T13:05:34;65.00;;;31.37;;
4732;SDS011;2380;53.668;10.008;2023-02-15T13:08:09;62.27;;;29.63;;
4732;SDS011;2380;53.668;10.008;2023-02-15T13:10:41;67.47;;;31.97;;
4732;SDS011;2380;53.668;10.008;2023-02-15T13:13:18;61.80;;;32.50;;
4732;SDS011;2380;53.668;10.008;2023-02-15T13:15:50;56.77;;;30.07;;
4732;SDS011;2380;53.668;10.008;2023-02-15T13:18:23;62.30;;;30.93;;
4732;SDS011;2380;53.668;10.008;2023-02-15T13:20:58;63.73;;;32.27;;
4732;SDS011;2380;53.668;10.008;2023-02-15T13:23:33;60.73;;;31.77;;
4732;SDS011;2380;53.668;10.008;2023-02-15T13:26:04;59.77;;;31.47;;
4732;SDS011;2380;53.668;10.008;2023-02-15T13:28:38;63.83;;;31.67;;
4732;SDS011;2380;53.668;10.008;2023-02-15T13:31:11;59.77;;;30.23;;
4732;SDS011;2380;53.668;10.008;2023-02-15T13:33:42;70.03;;;32.23;;
4732;SDS011;2380;53.668;10.008;2023-02-15T13:36:15;63.63;;;31.30;;
4732;SDS011;2380;53.668;10.008;2023-02-15T13:38:51;59.83;;;29.97;;
4732;SDS011;2380;53.668;10.008;2023-02-15T13:41:30;52.10;;;31.17;;
4732;SDS011;2380;53.668;10.008;2023-02-15T13:44:12;69.67;;;32.43;;
4732;SDS011;2380;53.668;10.008;2023-02-15T13:46:52;69.47;;;37.70;;
4732;SDS011;2380;53.668;10.008;2023-02-15T13:49:32;56.70;;;30.00;;
4732;SDS011;2380;53.668;10.008;2023-02-15T13:52:12;59.23;;;33.40;;
4732;SDS011;2380;53.668;10.008;2023-02-15T13:54:58;60.77;;;31.90;;
4732;SDS011;2380;53.668;10.008;2023-02-15T13:57:40;59.83;;;32.83;;
4732;SDS011;2380;53.668;10.008;2023-02-15T14:00:21;60.37;;;32.77;;
4732;SDS011;2380;53.668;10.008;2023-02-15T14:02:56;65.20;;;32.03;;
4732;SDS011;2380;53.668;10.008;2023-02-15T14:08:38;64.97;;;30.47;;
4732;SDS011;2380;53.668;10.008;2023-02-15T14:11:16;54.13;;;29.57;;
4732;SDS011;2380;53.668;10.008;2023-02-15T14:16:48;53.33;;;30.17;;
4732;SDS011;2380;53.668;10.008;2023-02-15T14:19:34;58.47;;;31.43;;
4732;SDS011;2380;53.668;10.008;2023-02-15T14:22:07;54.70;;;30.80;;
4732;SDS011;2380;53.668;10.008;2023-02-15T14:24:41;55.70;;;30.33;;
4732;SDS011;2380;53.668;10.008;2023-02-15T14:27:15;58.20;;;32.43;;
4732;SDS011;2380;53.668;10.008;2023-02-15T14:29:51;65.87;;;33.53;;
4732;SDS011;2380;53.668;10.008;2023-02-15T14:32:27;69.30;;;36.53;;
4732;SDS011;2380;53.668;10.008;2023-02-15T14:35:00;61.27;;;34.63;;
4732;SDS011;2380;53.668;10.008;2023-02-15T14:37:34;75.50;;;38.67;;
4732;SDS011;2380;53.668;10.008;2023-02-15T14:40:17;74.07;;;38.73;;
4732;SDS011;2380;53.668;10.008;2023-02-15T14:43:06;78.30;;;41.70;;
4732;SDS011;2380;53.668;10.008;2023-02-15T14:45:39;70.30;;;38.57;;
4732;SDS011;2380;53.668;10.008;2023-02-15T14:48:16;68.57;;;37.47;;
4732;SDS011;2380;53.668;10.008;2023-02-15T14:50:52;67.23;;;35.50;;
4732;SDS011;2380;53.668;10.008;2023-02-15T14:53:32;66.27;;;35.27;;
4732;SDS011;2380;53.668;10.008;2023-02-15T14:56:19;61.73;;;32.07;;
4732;SDS011;2380;53.668;10.008;2023-02-15T15:01:57;58.80;;;31.57;;
4732;SDS011;2380;53.668;10.008;2023-02-15T15:04:32;55.50;;;29.90;;
4732;SDS011;2380;53.668;10.008;2023-02-15T15:07:08;57.90;;;31.53;;
4732;SDS011;2380;53.668;10.008;2023-02-15T15:09:42;63.47;;;30.13;;
4732;SDS011;2380;53.668;10.008;2023-02-15T15:12:13;56.17;;;29.80;;